createdAt,value
2018-07-27T00:00:32.187Z,4.60
2018-07-27T00:01:32.184Z,5.00
2018-07-27T00:02:32.135Z,4.80
2018-07-27T00:03:32.134Z,4.40
2018-07-27T00:04:32.120Z,4.80
2018-07-27T00:05:32.108Z,4.50
2018-07-27T00:06:32.111Z,5.40
2018-07-27T00:07:32.112Z,4.40
2018-07-27T00:08:32.071Z,4.40
2018-07-27T00:09:32.058Z,4.40
2018-07-27T00:10:32.053Z,5.30
2018-07-27T00:11:32.066Z,4.70
2018-07-27T00:12:32.027Z,5.00
2018-07-27T00:13:32.046Z,4.70
2018-07-27T00:14:32.009Z,4.50
2018-07-27T00:15:31.995Z,4.80
2018-07-27T00:16:31.982Z,4.90
2018-07-27T00:17:31.999Z,4.90
2018-07-27T00:18:31.962Z,4.80
2018-07-27T00:19:31.965Z,4.70
2018-07-27T00:20:31.934Z,5.20
2018-07-27T00:21:31.928Z,4.90
2018-07-27T00:22:31.939Z,4.90
2018-07-27T00:23:31.904Z,5.70
2018-07-27T00:24:31.892Z,5.80
2018-07-27T00:25:31.899Z,4.70
2018-07-27T00:26:31.867Z,5.20
2018-07-27T00:27:31.863Z,5.70
2018-07-27T00:28:31.863Z,5.60
2018-07-27T00:29:31.838Z,4.90
2018-07-27T00:30:31.835Z,5.10
2018-07-27T00:31:31.859Z,5.20
2018-07-27T00:32:31.803Z,5.30
2018-07-27T00:33:31.809Z,5.00
2018-07-27T00:34:31.785Z,4.90
2018-07-27T00:35:31.770Z,5.10
2018-07-27T00:36:31.772Z,5.10
2018-07-27T00:37:31.771Z,5.10
2018-07-27T00:38:31.740Z,5.00
2018-07-27T00:39:31.739Z,5.10
2018-07-27T00:40:31.709Z,4.70
2018-07-27T00:41:31.709Z,4.60
2018-07-27T00:42:31.692Z,5.20
2018-07-27T00:43:31.705Z,4.80
2018-07-27T00:44:31.679Z,4.80
2018-07-27T00:45:31.656Z,5.30
2018-07-27T00:46:31.653Z,5.20
2018-07-27T00:47:31.643Z,5.20
2018-07-27T00:48:31.625Z,4.60
2018-07-27T00:49:31.668Z,5.20
2018-07-27T00:50:31.601Z,5.80
2018-07-27T00:51:31.588Z,5.00
2018-07-27T00:52:31.580Z,5.20
2018-07-27T00:53:31.571Z,5.00
2018-07-27T00:54:31.556Z,5.00
2018-07-27T00:55:31.598Z,5.20
2018-07-27T00:56:31.541Z,6.60
2018-07-27T00:57:31.524Z,6.80
2018-07-27T00:58:31.544Z,5.60
2018-07-27T00:59:31.500Z,5.40
2018-07-27T01:00:31.499Z,5.50
2018-07-27T01:01:31.547Z,5.20
2018-07-27T01:02:31.469Z,5.10
2018-07-27T01:03:31.455Z,4.90
2018-07-27T01:04:31.447Z,4.90
2018-07-27T01:05:31.433Z,6.10
2018-07-27T01:06:31.432Z,6.10
2018-07-27T01:07:31.436Z,5.70
2018-07-27T01:08:31.398Z,6.30
2018-07-27T01:09:31.390Z,4.80
2018-07-27T01:10:31.385Z,5.20
2018-07-27T01:11:31.390Z,5.20
2018-07-27T01:12:31.356Z,5.30
2018-07-27T01:13:31.365Z,5.90
2018-07-27T01:14:31.328Z,5.90
2018-07-27T01:15:31.319Z,5.70
2018-07-27T01:16:31.334Z,5.40
2018-07-27T01:17:31.299Z,5.30
2018-07-27T01:18:31.288Z,5.40
2018-07-27T01:19:31.296Z,5.60
2018-07-27T01:20:31.268Z,5.30
2018-07-27T01:21:31.265Z,5.30
2018-07-27T01:22:31.245Z,5.60
2018-07-27T01:23:31.224Z,5.40
2018-07-27T01:24:31.219Z,5.40
2018-07-27T01:25:31.233Z,5.50
2018-07-27T01:26:31.216Z,5.10
2018-07-27T01:27:31.185Z,5.20
2018-07-27T01:28:31.178Z,5.40
2018-07-27T01:29:31.167Z,5.40
2018-07-27T01:30:31.151Z,5.40
2018-07-27T01:31:31.160Z,5.00
2018-07-27T01:32:31.152Z,5.90
2018-07-27T01:33:31.116Z,6.00
2018-07-27T01:34:31.103Z,5.40
2018-07-27T01:35:31.095Z,5.40
2018-07-27T01:36:31.088Z,5.80
2018-07-27T01:37:31.094Z,5.60
2018-07-27T01:38:31.070Z,5.70
2018-07-27T01:39:31.049Z,5.30
2018-07-27T01:40:31.038Z,5.70
2018-07-27T01:41:31.029Z,5.60
2018-07-27T01:42:31.017Z,5.90
2018-07-27T01:43:31.048Z,6.10
2018-07-27T01:44:30.999Z,5.10
2018-07-27T01:45:30.984Z,5.50
2018-07-27T01:46:30.972Z,5.10
2018-07-27T01:47:30.961Z,5.60
2018-07-27T01:48:30.974Z,5.70
2018-07-27T01:49:30.953Z,5.70
2018-07-27T01:50:30.928Z,5.70
2018-07-27T01:51:30.913Z,5.60
2018-07-27T01:52:30.907Z,6.10
2018-07-27T01:53:30.892Z,5.80
2018-07-27T01:54:30.907Z,5.60
2018-07-27T01:55:30.897Z,5.80
2018-07-27T01:56:30.862Z,5.50
2018-07-27T01:57:30.850Z,5.60
2018-07-27T01:58:30.843Z,5.60
2018-07-27T01:59:30.825Z,5.60
2018-07-27T02:00:30.830Z,5.70
2018-07-27T02:01:30.829Z,5.60
2018-07-27T02:02:30.790Z,5.80
2018-07-27T02:03:30.781Z,6.10
2018-07-27T02:04:30.768Z,5.90
2018-07-27T02:05:30.770Z,5.40
2018-07-27T02:06:30.749Z,5.90
2018-07-27T02:07:30.758Z,5.90
2018-07-27T02:08:30.721Z,6.90
2018-07-27T02:09:30.719Z,6.30
2018-07-27T02:10:30.726Z,6.70
2018-07-27T02:11:30.687Z,6.00
2018-07-27T02:12:30.682Z,6.30
2018-07-27T02:13:30.686Z,6.40
2018-07-27T02:14:30.658Z,6.10
2018-07-27T02:15:30.650Z,6.00
2018-07-27T02:16:30.677Z,6.00
2018-07-27T02:17:30.624Z,6.50
2018-07-27T02:18:30.611Z,6.20
2018-07-27T02:19:30.626Z,6.60
2018-07-27T02:20:30.589Z,5.90
2018-07-27T02:21:30.577Z,6.20
2018-07-27T02:22:30.591Z,6.00
2018-07-27T02:23:30.602Z,6.00
2018-07-27T02:24:30.542Z,6.30
2018-07-27T02:25:30.550Z,5.80
2018-07-27T02:26:30.517Z,5.90
2018-07-27T02:27:30.513Z,5.70
2018-07-27T02:28:30.512Z,6.70
2018-07-27T02:29:30.494Z,6.30
2018-07-27T02:30:30.489Z,5.80
2018-07-27T02:31:30.492Z,6.30
2018-07-27T02:32:30.460Z,5.90
2018-07-27T02:33:30.469Z,6.00
2018-07-27T02:34:30.438Z,6.30
2018-07-27T02:35:30.428Z,6.00
2018-07-27T02:36:30.420Z,6.10
2018-07-27T02:37:30.429Z,5.90
2018-07-27T02:38:30.418Z,6.00
2018-07-27T02:39:30.374Z,6.00
2018-07-27T02:40:30.366Z,6.70
2018-07-27T02:41:30.356Z,6.20
2018-07-27T02:42:30.354Z,5.90
2018-07-27T02:43:30.348Z,6.10
2018-07-27T02:44:30.350Z,7.10
2018-07-27T02:45:30.315Z,6.00
2018-07-27T02:46:30.298Z,6.30
2018-07-27T02:47:30.285Z,6.20
2018-07-27T02:48:30.276Z,6.90
2018-07-27T02:49:30.285Z,7.50
2018-07-27T02:50:30.266Z,8.60
2018-07-27T02:51:30.343Z,9.50
2018-07-27T02:52:30.232Z,8.00
2018-07-27T02:53:30.219Z,8.90
2018-07-27T02:54:30.224Z,7.60
2018-07-27T02:55:30.233Z,6.60
2018-07-27T02:56:30.197Z,6.60
2018-07-27T02:57:30.174Z,7.30
2018-07-27T02:58:30.159Z,6.80
2018-07-27T02:59:30.153Z,7.90
2018-07-27T03:00:30.164Z,7.40
2018-07-27T03:01:30.154Z,6.10
2018-07-27T03:02:30.704Z,6.40
2018-07-27T03:03:30.114Z,6.20
2018-07-27T03:04:30.098Z,6.10
2018-07-27T03:05:30.108Z,6.40
2018-07-27T03:06:30.080Z,6.90
2018-07-27T03:07:30.081Z,6.70
2018-07-27T03:08:30.051Z,7.00
2018-07-27T03:09:30.046Z,6.90
2018-07-27T03:10:30.035Z,6.00
2018-07-27T03:11:30.056Z,7.10
2018-07-27T03:12:30.014Z,6.90
2018-07-27T03:13:30.027Z,6.00
2018-07-27T03:14:29.985Z,6.70
2018-07-27T03:15:29.982Z,7.40
2018-07-27T03:16:29.971Z,6.60
2018-07-27T03:17:29.964Z,6.40
2018-07-27T03:18:29.947Z,7.00
2018-07-27T03:19:30.702Z,6.10
2018-07-27T03:20:29.918Z,6.70
2018-07-27T03:21:29.905Z,8.30
2018-07-27T03:22:29.916Z,8.20
2018-07-27T03:23:29.883Z,7.70
2018-07-27T03:24:29.875Z,9.30
2018-07-27T03:25:29.882Z,9.90
2018-07-27T03:26:29.852Z,9.50
2018-07-27T03:27:29.852Z,9.60
2018-07-27T03:28:29.826Z,7.20
2018-07-27T03:29:29.815Z,7.30
2018-07-27T03:30:29.812Z,8.70
2018-07-27T03:31:29.818Z,7.60
2018-07-27T03:32:29.794Z,8.00
2018-07-27T03:33:29.775Z,7.10
2018-07-27T03:34:29.760Z,7.40
2018-07-27T03:35:29.747Z,6.50
2018-07-27T03:36:29.751Z,6.60
2018-07-27T03:37:29.745Z,6.70
2018-07-27T03:38:29.748Z,6.40
2018-07-27T03:39:29.703Z,7.20
2018-07-27T03:40:29.693Z,6.60
2018-07-27T03:41:29.683Z,7.80
2018-07-27T03:42:29.667Z,7.50
2018-07-27T03:43:29.686Z,7.90
2018-07-27T03:44:29.666Z,8.10
2018-07-27T03:45:29.639Z,7.60
2018-07-27T03:46:29.633Z,7.30
2018-07-27T03:47:29.621Z,7.20
2018-07-27T03:48:29.604Z,8.80
2018-07-27T03:49:29.678Z,8.20
2018-07-27T03:50:29.586Z,7.90
2018-07-27T03:51:29.576Z,7.50
2018-07-27T03:52:29.565Z,6.70
2018-07-27T03:53:29.544Z,7.20
2018-07-27T03:54:29.538Z,7.20
2018-07-27T03:55:29.598Z,6.90
2018-07-27T03:56:29.528Z,6.90
2018-07-27T03:57:29.509Z,6.60
2018-07-27T03:58:29.496Z,7.30
2018-07-27T03:59:29.477Z,7.80
2018-07-27T04:00:29.488Z,8.20
2018-07-27T04:01:29.472Z,8.20
2018-07-27T04:02:29.449Z,7.80
2018-07-27T04:03:29.431Z,9.10
2018-07-27T04:04:29.427Z,6.80
2018-07-27T04:05:29.438Z,6.80
2018-07-27T04:06:29.440Z,6.70
2018-07-27T04:07:29.422Z,7.20
2018-07-27T04:08:29.423Z,7.00
2018-07-27T04:09:29.371Z,7.40
2018-07-27T04:10:29.359Z,6.60
2018-07-27T04:11:29.343Z,6.60
2018-07-27T04:12:29.350Z,6.60
2018-07-27T04:13:29.342Z,6.80
2018-07-27T04:14:29.308Z,7.00
2018-07-27T04:15:29.300Z,6.90
2018-07-27T04:16:29.299Z,6.60
2018-07-27T04:17:29.308Z,8.40
2018-07-27T04:18:29.270Z,8.10
2018-07-27T04:19:29.273Z,7.90
2018-07-27T04:20:29.242Z,7.60
2018-07-27T04:21:29.235Z,7.80
2018-07-27T04:22:29.236Z,7.20
2018-07-27T04:23:29.244Z,7.70
2018-07-27T04:24:29.202Z,7.40
2018-07-27T04:25:29.208Z,8.80
2018-07-27T04:26:29.175Z,8.80
2018-07-27T04:27:29.162Z,9.70
2018-07-27T04:28:29.160Z,10.80
2018-07-27T04:29:29.156Z,9.90
2018-07-27T04:30:29.132Z,10.30
2018-07-27T04:31:29.141Z,10.90
2018-07-27T04:32:29.116Z,9.90
2018-07-27T04:33:29.099Z,8.70
2018-07-27T04:34:29.117Z,9.20
2018-07-27T04:35:29.078Z,9.00
2018-07-27T04:36:29.062Z,8.90
2018-07-27T04:37:29.070Z,8.20
2018-07-27T04:38:29.043Z,8.80
2018-07-27T04:39:29.029Z,9.50
2018-07-27T04:40:29.031Z,8.50
2018-07-27T04:41:29.005Z,7.80
2018-07-27T04:42:28.999Z,8.70
2018-07-27T04:43:29.003Z,8.10
2018-07-27T04:44:29.004Z,8.30
2018-07-27T04:45:28.965Z,7.90
2018-07-27T04:46:28.951Z,8.20
2018-07-27T04:47:28.936Z,9.70
2018-07-27T04:48:28.929Z,8.50
2018-07-27T04:49:29.020Z,7.90
2018-07-27T04:50:28.943Z,15.20
2018-07-27T04:51:28.902Z,12.00
2018-07-27T04:52:28.886Z,15.20
2018-07-27T04:53:28.873Z,10.90
2018-07-27T04:54:28.864Z,9.80
2018-07-27T04:55:28.863Z,8.10
2018-07-27T04:56:28.931Z,10.30
2018-07-27T04:57:28.830Z,9.80
2018-07-27T04:58:28.816Z,10.20
2018-07-27T04:59:28.810Z,10.10
2018-07-27T05:00:28.797Z,7.80
2018-07-27T05:01:28.821Z,8.30
2018-07-27T05:02:28.768Z,10.50
2018-07-27T05:03:28.765Z,9.80
2018-07-27T05:04:28.752Z,10.50
2018-07-27T05:05:28.743Z,9.80
2018-07-27T05:06:28.727Z,9.40
2018-07-27T05:07:28.756Z,8.30
2018-07-27T05:08:28.707Z,9.30
2018-07-27T05:09:28.703Z,9.60
2018-07-27T05:10:28.681Z,9.30
2018-07-27T05:11:28.672Z,8.90
2018-07-27T05:12:28.674Z,9.50
2018-07-27T05:13:28.665Z,8.90
2018-07-27T05:14:28.638Z,9.60
2018-07-27T05:15:28.629Z,8.70
2018-07-27T05:16:28.621Z,9.10
2018-07-27T05:17:28.625Z,8.50
2018-07-27T05:18:28.592Z,8.30
2018-07-27T05:19:28.606Z,8.90
2018-07-27T05:20:28.571Z,9.50
2018-07-27T05:21:28.562Z,10.50
2018-07-27T05:22:28.552Z,10.60
2018-07-27T05:23:28.553Z,11.00
2018-07-27T05:24:28.578Z,9.10
2018-07-27T05:25:28.527Z,10.60
2018-07-27T05:26:28.504Z,11.30
2018-07-27T05:27:28.492Z,10.70
2018-07-27T05:28:28.503Z,9.70
2018-07-27T05:29:28.470Z,9.60
2018-07-27T05:30:28.459Z,9.20
2018-07-27T05:31:28.469Z,10.80
2018-07-27T05:32:28.432Z,13.90
2018-07-27T05:33:28.425Z,11.50
2018-07-27T05:34:28.479Z,10.30
2018-07-27T05:35:28.405Z,14.00
2018-07-27T05:36:28.392Z,11.80
2018-07-27T05:37:28.398Z,10.30
2018-07-27T05:38:28.367Z,10.20
2018-07-27T05:39:28.384Z,10.20
2018-07-27T05:40:28.342Z,9.70
2018-07-27T05:41:28.336Z,8.10
2018-07-27T05:42:28.323Z,9.20
2018-07-27T05:43:28.333Z,10.40
2018-07-27T05:44:28.302Z,9.30
2018-07-27T05:45:28.301Z,10.70
2018-07-27T05:46:28.273Z,8.90
2018-07-27T05:47:28.266Z,10.10
2018-07-27T05:48:28.257Z,8.70
2018-07-27T05:49:28.267Z,10.40
2018-07-27T05:50:28.264Z,9.90
2018-07-27T05:51:28.218Z,8.80
2018-07-27T05:52:28.214Z,8.40
2018-07-27T05:53:28.200Z,10.10
2018-07-27T05:54:28.201Z,9.10
2018-07-27T05:55:28.199Z,9.20
2018-07-27T05:56:28.180Z,9.80
2018-07-27T05:57:28.163Z,10.80
2018-07-27T05:58:28.152Z,8.30
2018-07-27T05:59:28.194Z,11.50
2018-07-27T06:00:28.122Z,9.80
2018-07-27T06:01:28.152Z,10.10
2018-07-27T06:02:28.109Z,10.00
2018-07-27T06:03:28.091Z,8.80
2018-07-27T06:04:28.077Z,8.70
2018-07-27T06:05:28.115Z,9.50
2018-07-27T06:06:28.084Z,9.60
2018-07-27T06:07:28.060Z,8.00
2018-07-27T06:08:28.031Z,8.40
2018-07-27T06:09:28.021Z,8.50
2018-07-27T06:10:28.019Z,9.20
2018-07-27T06:11:27.999Z,8.60
2018-07-27T06:12:28.042Z,7.80
2018-07-27T06:13:27.977Z,8.60
2018-07-27T06:14:27.976Z,7.90
2018-07-27T06:15:27.965Z,7.10
2018-07-27T06:16:27.946Z,7.60
2018-07-27T06:17:27.942Z,8.30
2018-07-27T06:18:27.962Z,7.40
2018-07-27T06:19:27.909Z,8.10
2018-07-27T06:20:27.903Z,8.30
2018-07-27T06:21:27.891Z,7.70
2018-07-27T06:22:27.887Z,7.40
2018-07-27T06:23:27.893Z,7.00
2018-07-27T06:24:27.882Z,7.10
2018-07-27T06:25:27.849Z,7.70
2018-07-27T06:26:27.836Z,7.60
2018-07-27T06:27:27.829Z,7.40
2018-07-27T06:28:27.817Z,7.40
2018-07-27T06:29:27.816Z,7.10
2018-07-27T06:30:27.812Z,7.10
2018-07-27T06:31:27.776Z,7.00
2018-07-27T06:32:27.785Z,7.20
2018-07-27T06:33:27.759Z,7.00
2018-07-27T06:34:27.783Z,7.70
2018-07-27T06:35:27.735Z,7.80
2018-07-27T06:36:27.738Z,6.20
2018-07-27T06:37:27.721Z,7.70
2018-07-27T06:38:27.704Z,9.30
2018-07-27T06:39:27.687Z,8.70
2018-07-27T06:40:27.697Z,6.60
2018-07-27T06:41:27.669Z,6.00
2018-07-27T06:42:27.679Z,6.30
2018-07-27T06:43:27.648Z,6.30
2018-07-27T06:44:27.647Z,5.70
2018-07-27T06:45:27.648Z,6.20
2018-07-27T06:46:27.772Z,6.80
2018-07-27T06:47:27.610Z,6.90
2018-07-27T06:48:27.590Z,6.40
2018-07-27T06:49:27.605Z,6.30
2018-07-27T06:50:27.565Z,7.00
2018-07-27T06:51:27.575Z,6.60
2018-07-27T06:52:27.601Z,5.80
2018-07-27T06:53:27.537Z,6.60
2018-07-27T06:54:27.524Z,6.40
2018-07-27T06:55:27.508Z,5.70
2018-07-27T06:56:27.516Z,6.50
2018-07-27T06:57:27.529Z,6.90
2018-07-27T06:58:27.484Z,8.80
2018-07-27T06:59:34.257Z,6.60
2018-07-27T07:00:27.461Z,5.70
2018-07-27T07:01:27.464Z,6.20
2018-07-27T07:02:27.432Z,5.90
2018-07-27T07:03:27.502Z,6.00
2018-07-27T07:04:27.414Z,6.40
2018-07-27T07:05:27.420Z,6.90
2018-07-27T07:06:27.410Z,5.60
2018-07-27T07:07:27.391Z,5.60
2018-07-27T07:08:27.376Z,5.60
2018-07-27T07:09:27.383Z,5.50
2018-07-27T07:10:27.352Z,5.80
2018-07-27T07:11:27.377Z,5.70
2018-07-27T07:12:27.323Z,5.30
2018-07-27T07:13:27.320Z,5.30
2018-07-27T07:14:27.335Z,5.30
2018-07-27T07:15:27.311Z,5.90
2018-07-27T07:16:27.288Z,5.30
2018-07-27T07:17:27.318Z,5.70
2018-07-27T07:18:27.264Z,5.60
2018-07-27T07:19:27.252Z,5.60
2018-07-27T07:20:27.244Z,5.30
2018-07-27T07:21:27.272Z,5.00
2018-07-27T07:22:27.220Z,4.90
2018-07-27T07:23:27.243Z,5.60
2018-07-27T07:24:27.206Z,5.40
2018-07-27T07:25:27.321Z,5.40
2018-07-27T07:26:27.177Z,5.60
2018-07-27T07:27:27.180Z,5.10
2018-07-27T07:28:27.169Z,5.30
2018-07-27T07:29:27.140Z,5.20
2018-07-27T07:30:27.132Z,5.80
2018-07-27T07:31:27.119Z,5.10
2018-07-27T07:32:27.109Z,4.80
2018-07-27T07:33:27.146Z,4.70
2018-07-27T07:34:27.088Z,4.90
2018-07-27T07:35:27.079Z,4.60
2018-07-27T07:36:27.067Z,4.90
2018-07-27T07:37:27.063Z,5.20
2018-07-27T07:38:27.070Z,4.50
2018-07-27T07:39:27.068Z,5.40
2018-07-27T07:40:27.070Z,5.10
2018-07-27T07:41:27.021Z,4.70
2018-07-27T07:42:27.005Z,4.60
2018-07-27T07:43:27.003Z,4.50
2018-07-27T07:44:26.999Z,4.90
2018-07-27T07:45:26.970Z,5.00
2018-07-27T07:46:26.963Z,5.60
2018-07-27T07:47:26.950Z,4.70
2018-07-27T07:48:27.071Z,4.60
2018-07-27T07:49:27.036Z,4.20
2018-07-27T07:50:26.916Z,4.50
2018-07-27T07:51:26.910Z,5.50
2018-07-27T07:52:26.900Z,5.20
2018-07-27T07:53:26.887Z,5.10
2018-07-27T07:54:26.902Z,5.80
2018-07-27T07:55:26.882Z,4.90
2018-07-27T07:56:26.853Z,5.20
2018-07-27T07:57:26.851Z,5.10
2018-07-27T07:58:26.832Z,5.00
2018-07-27T07:59:26.835Z,5.10
2018-07-27T08:00:26.823Z,4.80
2018-07-27T08:01:26.843Z,4.80
2018-07-27T08:02:26.783Z,5.00
2018-07-27T08:03:26.777Z,5.10
2018-07-27T08:04:26.771Z,4.60
2018-07-27T08:05:26.839Z,4.70
2018-07-27T08:06:26.752Z,4.50
2018-07-27T08:07:27.744Z,4.90
2018-07-27T08:08:26.726Z,4.90
2018-07-27T08:09:26.712Z,4.80
2018-07-27T08:10:26.694Z,5.10
2018-07-27T08:11:26.734Z,4.70
2018-07-27T08:12:26.665Z,4.50
2018-07-27T08:13:26.658Z,4.40
2018-07-27T08:14:26.654Z,4.90
2018-07-27T08:15:26.639Z,4.30
2018-07-27T08:16:26.656Z,5.00
2018-07-27T08:17:26.642Z,5.40
2018-07-27T08:18:26.612Z,4.20
2018-07-27T08:19:26.612Z,4.10
2018-07-27T08:20:26.594Z,4.40
2018-07-27T08:21:26.574Z,4.20
2018-07-27T08:22:26.586Z,4.30
2018-07-27T08:23:26.556Z,4.20
2018-07-27T08:24:26.579Z,4.40
2018-07-27T08:25:26.537Z,4.20
2018-07-27T08:26:26.529Z,4.40
2018-07-27T08:27:26.542Z,4.60
2018-07-27T08:28:26.506Z,4.30
2018-07-27T08:29:26.490Z,4.40
2018-07-27T08:30:26.502Z,4.60
2018-07-27T08:31:26.476Z,4.90
2018-07-27T08:32:26.467Z,4.80
2018-07-27T08:33:26.442Z,5.10
2018-07-27T08:34:26.438Z,4.70
2018-07-27T08:35:26.422Z,4.70
2018-07-27T08:36:26.437Z,4.90
2018-07-27T08:37:26.427Z,5.20
2018-07-27T08:38:26.388Z,5.00
2018-07-27T08:39:26.383Z,5.20
2018-07-27T08:40:26.376Z,4.50
2018-07-27T08:41:26.369Z,4.70
2018-07-27T08:42:26.393Z,4.70
2018-07-27T08:43:26.341Z,5.00
2018-07-27T08:44:26.329Z,5.60
2018-07-27T08:45:26.314Z,5.10
2018-07-27T08:46:26.307Z,4.80
2018-07-27T08:47:26.328Z,4.70
2018-07-27T08:48:26.299Z,4.60
2018-07-27T08:49:26.273Z,4.80
2018-07-27T08:50:26.278Z,4.80
2018-07-27T08:51:26.272Z,5.30
2018-07-27T08:52:26.252Z,4.90
2018-07-27T08:53:26.247Z,5.00
2018-07-27T08:54:26.267Z,4.70
2018-07-27T08:55:26.211Z,4.40
2018-07-27T08:56:26.266Z,4.40
2018-07-27T08:57:26.221Z,4.60
2018-07-27T08:58:26.181Z,4.50
2018-07-27T08:59:26.167Z,4.20
2018-07-27T09:00:26.176Z,4.60
2018-07-27T09:01:26.138Z,4.70
2018-07-27T09:02:26.154Z,4.20
2018-07-27T09:03:26.130Z,4.40
2018-07-27T09:04:26.115Z,4.10
2018-07-27T09:05:26.109Z,3.80
2018-07-27T09:06:26.108Z,4.00
2018-07-27T09:07:26.089Z,4.00
2018-07-27T09:08:26.070Z,4.30
2018-07-27T09:09:26.085Z,4.60
2018-07-27T09:10:26.056Z,4.20
2018-07-27T09:11:26.039Z,4.30
2018-07-27T09:12:26.073Z,3.80
2018-07-27T09:13:26.016Z,4.00
2018-07-27T09:14:25.998Z,4.10
2018-07-27T09:15:26.000Z,3.90
2018-07-27T09:16:25.974Z,3.80
2018-07-27T09:17:26.049Z,4.40
2018-07-27T09:18:25.968Z,4.10
2018-07-27T09:19:25.938Z,5.10
2018-07-27T09:20:25.935Z,4.20
2018-07-27T09:21:25.924Z,4.40
2018-07-27T09:22:25.940Z,4.40
2018-07-27T09:23:25.898Z,4.70
2018-07-27T09:24:26.050Z,4.80
2018-07-27T09:25:26.126Z,4.60
2018-07-27T09:26:25.866Z,4.80
2018-07-27T09:27:25.863Z,4.20
2018-07-27T09:28:25.840Z,4.00
2018-07-27T09:29:25.831Z,4.10
2018-07-27T09:30:25.846Z,4.40
2018-07-27T09:31:25.809Z,4.20
2018-07-27T09:32:25.825Z,4.10
2018-07-27T09:33:25.784Z,4.00
2018-07-27T09:34:25.775Z,4.20
2018-07-27T09:35:25.794Z,4.50
2018-07-27T09:36:25.786Z,4.70
2018-07-27T09:37:25.772Z,4.30
2018-07-27T09:38:25.726Z,4.40
2018-07-27T09:39:25.721Z,4.30
2018-07-27T09:40:25.725Z,4.40
2018-07-27T09:41:25.693Z,4.60
2018-07-27T09:42:25.704Z,4.00
2018-07-27T09:43:25.682Z,4.30
2018-07-27T09:44:25.672Z,4.60
2018-07-27T09:45:25.657Z,4.30
2018-07-27T09:46:25.666Z,4.20
2018-07-27T09:47:25.629Z,4.20
2018-07-27T09:48:25.662Z,4.30
2018-07-27T09:49:25.611Z,4.80
2018-07-27T09:50:25.596Z,4.40
2018-07-27T09:51:25.579Z,5.00
2018-07-27T09:52:25.575Z,4.20
2018-07-27T09:53:25.565Z,5.20
2018-07-27T09:54:25.613Z,3.90
2018-07-27T09:55:25.540Z,4.30
2018-07-27T09:56:25.533Z,3.90
2018-07-27T09:57:25.596Z,4.70
2018-07-27T09:58:25.512Z,5.50
2018-07-27T09:59:25.522Z,4.60
2018-07-27T10:00:25.496Z,5.10
2018-07-27T10:01:25.473Z,4.30
2018-07-27T10:02:25.460Z,4.10
2018-07-27T10:03:25.449Z,3.90
2018-07-27T10:04:25.444Z,4.40
2018-07-27T10:05:25.461Z,5.10
2018-07-27T10:06:25.435Z,4.00
2018-07-27T10:07:25.408Z,4.30
2018-07-27T10:08:25.393Z,4.20
2018-07-27T10:09:25.382Z,4.30
2018-07-27T10:10:25.362Z,4.30
2018-07-27T10:11:25.370Z,4.00
2018-07-27T10:12:25.372Z,4.30
2018-07-27T10:13:25.333Z,4.20
2018-07-27T10:14:25.326Z,4.20
2018-07-27T10:15:25.316Z,4.10
2018-07-27T10:16:25.308Z,4.30
2018-07-27T10:17:25.294Z,4.50
2018-07-27T10:18:25.338Z,4.10
2018-07-27T10:19:25.269Z,4.20
2018-07-27T10:20:25.257Z,4.10
2018-07-27T10:21:25.255Z,4.10
2018-07-27T10:22:25.230Z,4.40
2018-07-27T10:23:25.217Z,4.30
2018-07-27T10:24:25.228Z,4.60
2018-07-27T10:25:25.203Z,3.90
2018-07-27T10:26:25.218Z,4.10
2018-07-27T10:27:25.180Z,4.60
2018-07-27T10:28:25.169Z,4.40
2018-07-27T10:29:25.154Z,4.10
2018-07-27T10:30:25.175Z,4.60
2018-07-27T10:31:25.131Z,4.40
2018-07-27T10:32:25.171Z,4.10
2018-07-27T10:33:25.113Z,4.30
2018-07-27T10:34:25.098Z,4.90
2018-07-27T10:35:25.093Z,4.40
2018-07-27T10:36:25.112Z,4.70
2018-07-27T10:37:25.075Z,5.10
2018-07-27T10:38:25.069Z,5.10
2018-07-27T10:39:25.043Z,4.70
2018-07-27T10:40:25.037Z,4.70
2018-07-27T10:41:25.026Z,5.10
2018-07-27T10:42:25.025Z,4.80
2018-07-27T10:43:25.011Z,5.30
2018-07-27T10:44:24.993Z,4.50
2018-07-27T10:45:24.981Z,4.60
2018-07-27T10:46:24.976Z,4.20
2018-07-27T10:47:24.967Z,4.30
2018-07-27T10:48:25.010Z,4.00
2018-07-27T10:49:24.939Z,4.40
2018-07-27T10:50:24.934Z,4.20
2018-07-27T10:51:24.920Z,4.30
2018-07-27T10:52:24.911Z,4.50
2018-07-27T10:53:24.910Z,4.20
2018-07-27T10:54:24.902Z,4.20
2018-07-27T10:55:24.920Z,5.40
2018-07-27T10:56:24.868Z,4.30
2018-07-27T10:57:24.866Z,4.60
2018-07-27T10:58:24.850Z,4.60
2018-07-27T10:59:24.827Z,4.50
2018-07-27T11:00:24.840Z,4.30
2018-07-27T11:01:24.815Z,4.10
2018-07-27T11:02:24.840Z,4.40
2018-07-27T11:03:24.802Z,4.50
2018-07-27T11:04:24.775Z,5.10
2018-07-27T11:05:24.769Z,4.50
2018-07-27T11:06:24.774Z,4.20
2018-07-27T11:07:24.743Z,4.30
2018-07-27T11:08:24.745Z,4.10
2018-07-27T11:09:24.725Z,4.90
2018-07-27T11:10:24.708Z,4.60
2018-07-27T11:11:24.703Z,4.30
2018-07-27T11:12:24.712Z,4.20
2018-07-27T11:13:24.692Z,4.10
2018-07-27T11:14:24.673Z,4.30
2018-07-27T11:15:24.658Z,4.20
2018-07-27T11:16:24.654Z,4.60
2018-07-27T11:17:24.718Z,4.60
2018-07-27T11:18:24.677Z,4.50
2018-07-27T11:19:24.615Z,4.30
2018-07-27T11:20:24.606Z,4.30
2018-07-27T11:21:24.601Z,4.10
2018-07-27T11:22:24.588Z,4.30
2018-07-27T11:23:24.575Z,4.40
2018-07-27T11:24:24.604Z,5.00
2018-07-27T11:25:24.550Z,4.20
2018-07-27T11:26:24.543Z,4.30
2018-07-27T11:27:24.536Z,4.40
2018-07-27T11:28:24.523Z,4.30
2018-07-27T11:29:24.515Z,4.90
2018-07-27T11:30:24.556Z,4.70
2018-07-27T11:31:24.485Z,4.40
2018-07-27T11:32:24.476Z,4.90
2018-07-27T11:33:24.466Z,4.60
2018-07-27T11:34:24.456Z,4.80
2018-07-27T11:35:24.447Z,4.70
2018-07-27T11:36:24.491Z,4.70
2018-07-27T11:37:24.487Z,5.00
2018-07-27T11:38:24.414Z,4.80
2018-07-27T11:39:24.400Z,4.80
2018-07-27T11:40:24.387Z,5.60
2018-07-27T11:41:24.418Z,5.00
2018-07-27T11:42:24.402Z,4.90
2018-07-27T11:43:24.358Z,4.90
2018-07-27T11:44:24.346Z,4.70
2018-07-27T11:45:24.340Z,5.10
2018-07-27T11:46:24.332Z,5.20
2018-07-27T11:47:24.323Z,5.40
2018-07-27T11:48:24.321Z,5.50
2018-07-27T11:49:24.315Z,5.40
2018-07-27T11:50:24.285Z,5.30
2018-07-27T11:51:24.276Z,5.00
2018-07-27T11:52:24.281Z,5.00
2018-07-27T11:53:24.248Z,6.30
2018-07-27T11:54:24.263Z,4.90
2018-07-27T11:55:24.231Z,5.30
2018-07-27T11:56:24.216Z,5.50
2018-07-27T11:57:24.225Z,5.60
2018-07-27T11:58:24.192Z,5.40
2018-07-27T11:59:24.186Z,5.30
2018-07-27T12:00:24.249Z,5.30
2018-07-27T12:01:24.168Z,5.10
2018-07-27T12:02:24.191Z,5.60
2018-07-27T12:03:24.142Z,5.30
2018-07-27T12:04:24.136Z,6.00
2018-07-27T12:05:24.128Z,5.50
2018-07-27T12:06:24.126Z,5.00
2018-07-27T12:07:24.105Z,4.60
2018-07-27T12:08:24.104Z,5.30
2018-07-27T12:09:24.075Z,5.10
2018-07-27T12:10:24.074Z,4.80
2018-07-27T12:11:24.076Z,4.70
2018-07-27T12:12:24.039Z,4.70
2018-07-27T12:13:24.078Z,5.00
2018-07-27T12:14:24.231Z,4.80
2018-07-27T12:15:24.017Z,5.50
2018-07-27T12:16:24.006Z,4.30
2018-07-27T12:17:24.005Z,4.30
2018-07-27T12:18:23.990Z,4.30
2018-07-27T12:19:23.987Z,4.30
2018-07-27T12:20:23.967Z,4.90
2018-07-27T12:21:24.081Z,4.30
2018-07-27T12:22:23.941Z,4.10
2018-07-27T12:23:23.944Z,4.40
2018-07-27T12:24:23.984Z,4.20
2018-07-27T12:25:23.902Z,4.40
2018-07-27T12:26:23.896Z,4.40
2018-07-27T12:27:23.885Z,4.80
2018-07-27T12:28:23.875Z,5.10
2018-07-27T12:29:23.879Z,4.20
2018-07-27T12:30:23.862Z,5.00
2018-07-27T12:31:23.840Z,4.80
2018-07-27T12:32:23.866Z,5.00
2018-07-27T12:33:23.822Z,4.80
2018-07-27T12:34:23.811Z,4.60
2018-07-27T12:35:23.832Z,5.50
2018-07-27T12:36:24.307Z,4.60
2018-07-27T12:37:23.779Z,5.50
2018-07-27T12:38:23.776Z,4.90
2018-07-27T12:39:23.758Z,4.60
2018-07-27T12:40:23.790Z,4.80
2018-07-27T12:41:23.745Z,5.10
2018-07-27T12:42:23.726Z,5.10
2018-07-27T12:43:23.718Z,5.30
2018-07-27T12:44:23.700Z,5.70
2018-07-27T12:45:23.694Z,4.90
2018-07-27T12:46:23.713Z,4.90
2018-07-27T12:47:23.676Z,4.80
2018-07-27T12:48:23.663Z,4.90
2018-07-27T12:49:23.652Z,4.60
2018-07-27T12:50:24.310Z,5.10
2018-07-27T12:51:23.680Z,5.60
2018-07-27T12:52:23.616Z,6.30
2018-07-27T12:53:23.614Z,5.20
2018-07-27T12:54:23.600Z,5.00
2018-07-27T12:55:23.591Z,5.20
2018-07-27T12:56:23.579Z,5.50
2018-07-27T12:57:23.597Z,5.40
2018-07-27T12:58:23.561Z,4.70
2018-07-27T12:59:23.546Z,4.80
2018-07-27T13:00:23.529Z,5.40
2018-07-27T13:01:23.521Z,5.50
2018-07-27T13:02:23.531Z,5.00
2018-07-27T13:03:23.523Z,5.20
2018-07-27T13:04:23.490Z,4.90
2018-07-27T13:05:23.499Z,4.60
2018-07-27T13:06:23.470Z,5.10
2018-07-27T13:07:23.457Z,5.00
2018-07-27T13:08:23.459Z,5.10
2018-07-27T13:09:23.450Z,5.30
2018-07-27T13:10:23.425Z,5.10
2018-07-27T13:11:23.414Z,5.30
2018-07-27T13:12:23.429Z,5.00
2018-07-27T13:13:23.440Z,4.90
2018-07-27T13:14:23.382Z,5.00
2018-07-27T13:15:23.391Z,5.30
2018-07-27T13:16:23.364Z,4.90
2018-07-27T13:17:23.347Z,5.00